• Join FlightAware (Why Join?)
  • Login
  • US Flag 
11:13PM EDT


 

Airport Tracker/Info


-or-


 

Live Flight TrackerFlight Track Log ✈ N830QS ✈ 20-Jun-2013 ✈ KBRO - KDWH

Flight Track Log - Related Links

Times and Time Zones

All times are in EDT time to prevent confusion due to time zone crossing. See the N830QS flight status page for this flight to view local times or setup timezone preferences in your user account.

Time Position Orientation Groundspeed Altitude Reporting Facility
EDT Latitude Longitude Course Direction KTS MPH feet Rate Location/Type
02:11PM 25.9019 -97.4197 38° Northeast 129 148 700  Level Houston Center
02:12PM 25.9364 -97.3894 38° Northeast 223 257 3,000 2,100 Climbing Houston Center
02:14PM 26.0181 -97.3667 14° North 299 344 5,200 2,760 Climbing Houston Center
02:15PM 26.1156 -97.3417 13° North 290 334 9,500 3,300 Climbing Houston Center
02:16PM 26.2003 -97.3344 North 310 357 12,700 2,640 Climbing Houston Center
02:17PM 26.2958 -97.3403 357° North 318 366 15,100 2,100 Climbing Houston Center
02:18PM 26.3928 -97.3464 357° North 343 395 17,100 2,160 Climbing Houston Center
02:19PM 26.4953 -97.3536 356° North 345 397 19,600 2,340 Climbing Houston Center
02:20PM 26.5878 -97.3594 357° North 334 384 22,000 2,100 Climbing Houston Center
02:21PM 26.6869 -97.3661 357° North 331 381 24,000 960 Climbing Houston Center
02:22PM 26.7892 -97.3711 357° North 365 420 24,000  Level Houston Center
02:23PM 26.8883 -97.3328 19° North 397 457 24,000  Level Houston Center
02:24PM 26.9875 -97.2922 20° North 392 451 24,000  Level Houston Center
02:25PM 27.0875 -97.2483 21° North 387 445 24,000 480 Level Houston Center
02:26PM 27.2072 -97.1958 21° North 386 444 25,000 480 Climbing Houston Center
02:27PM 27.3069 -97.1536 21° North 385 443 25,000  Level Houston Center
02:28PM 27.4086 -97.1081 22° Northeast 387 445 25,000  Level Houston Center
02:29PM 27.5122 -97.0628 21° North 391 450 25,000  Level Houston Center
02:30PM 27.6181 -97.0172 21° North 397 457 25,000  Level Houston Center
02:31PM 27.7444 -96.9617 21° North 402 463 25,000  Level Houston Center
02:32PM 27.8492 -96.9164 21° North 403 464 25,000  Level Houston Center
02:33PM 27.9528 -96.8706 21° North 402 463 25,000  Level Houston Center
02:34PM 28.0611 -96.8250 20° North 407 468 25,000  Level Houston Center
02:36PM 28.1653 -96.7794 21° North 403 464 25,000  Level Houston Center
02:37PM 28.2781 -96.7289 22° Northeast 400 460 25,000  Level Houston Center
02:38PM 28.3847 -96.6839 20° North 403 464 25,000  Level Houston Center
02:39PM 28.4894 -96.6383 21° North 404 465 25,000  Level Houston Center
02:40PM 28.6147 -96.5814 22° Northeast 403 464 25,000  Level Houston Center
02:41PM 28.7172 -96.5339 22° Northeast 401 461 25,000 -240 Level Houston Center
02:42PM 28.8269 -96.4897 19° North 410 472 24,600 -1,200 Descending Houston Center
02:43PM 28.9297 -96.4439 21° North 398 458 22,600 -2,040 Descending Houston Center
02:44PM 29.0303 -96.3989 21° North 391 450 20,500 -2,040 Descending Houston Center
02:45PM 29.1283 -96.3558 21° North 379 436 18,500 -2,160 Descending Houston Center
02:46PM 29.2447 -96.3036 21° North 376 433 16,100 -2,100 Descending Houston Center
02:47PM 29.3356 -96.2625 22° Northeast 355 409 14,200 -1,980 Descending Houston Center
02:48PM 29.4325 -96.2200 21° North 355 409 12,200 -1,920 Descending Houston Center
02:49PM 29.5306 -96.1875 16° North 337 388 10,400 -1,080 Descending Houston Center
02:50PM 29.6050 -96.1503 23° Northeast 285 328 10,000 -900 Descending Houston Center
02:51PM 29.6619 -96.0792 47° Northeast 297 342 8,600 -1,620 Descending Houston Center
02:52PM 29.7175 -96.0175 44° Northeast 268 308 6,800 -1,800 Descending Houston Center
02:53PM 29.7711 -95.9586 44° Northeast 292 336 5,100 -2,220 Descending Houston Center
02:54PM 29.8319 -95.8867 46° Northeast 278 320 2,300 -1,500 Descending Houston Center
02:55PM 29.8836 -95.8300 44° Northeast 228 262 2,000 -180 Descending Houston Center
02:56PM 29.9294 -95.7789 44° Northeast 233 268 2,000  Level Houston Center
02:57PM 29.9750 -95.7253 46° Northeast 221 254 2,000  Level Houston Center
02:58PM 30.0272 -95.6694 43° Northeast 223 257 2,000 -120 Level Houston Center
02:59PM 30.0714 -95.6203 44° Northeast 221 254 1,800 -540 Descending Houston Center
03:00PM 30.0997 -95.5925 40° Northeast 160 184 1,100 -720 Descending Houston Center
03:01PM 30.0861 -95.5578 114° Southeast 118 136 500 -600 Descending Houston Center
03:03PM 30.0618 -95.5528 180° South  Level Estimated